• Join FlightAware (Why Join?)
  • Login
  • US Flag 
08:38AM EDT


 

Airport Tracker/Info


-or-


 

Live Flight TrackerFlight Track Log ✈ BER7249 ✈ 01-May-2012 ✈ KJFK - EDDT / TXL

Flight Track Log - Related Links

Times and Time Zones

All times are in EDT time to prevent confusion due to time zone crossing. See the BER7249 flight status page for this flight to view local times or setup timezone preferences in your user account.

Time Position Orientation Groundspeed Altitude Reporting Facility
EDT Latitude Longitude Course Direction KTS MPH feet Rate Location/Type
05:53PM 40.6500 -73.7500 72° East 169 194 1,500  Level New York TRACON
05:54PM 40.6667 -73.6833 49° Northeast 190 219 2,700 1,200 Climbing New York TRACON
05:55PM 40.7000 -73.6333 37° Northeast 249 287 3,900 1,860 Climbing New York TRACON
05:56PM 40.7667 -73.5667 23° Northeast 274 315 6,500 2,100 Climbing New York TRACON
05:59PM 40.9117 -73.4836 12° North 277 319 10,800 1,800 Climbing Boston Center
06:00PM 41.0183 -73.4525 12° North 318 366 12,400 1,860 Climbing Boston Center
06:01PM 41.1103 -73.4264 13° North 363 418 14,600 2,160 Climbing Boston Center
06:02PM 41.2773 -73.3738 12° North 385 443 17,800 2,040 Climbing FlightAware ADS-B
06:03PM 41.3345 -73.3570 18° North 390 449 18,800 1,860 Climbing FlightAware ADS-B
06:04PM 41.4266 -73.3176 24° Northeast 398 458 20,500 1,860 Climbing FlightAware ADS-B
06:04PM 41.4444 -73.3068 25° Northeast 404 465 20,800 1,560 Climbing FlightAware ADS-B
06:04PM 41.4776 -73.2862 North 404 465 21,300 1,200 Climbing FlightAware ADS-B
06:05PM 41.5261 -73.2803 359° North 384 442 21,900 1,380 Climbing Boston Center
06:06PM 41.6325 -73.2817 359° North 379 436 23,500 1,440 Climbing Boston Center
06:07PM 41.7450 -73.2831 North 384 442 24,800 1,260 Climbing Boston Center
06:08PM 41.8597 -73.2792 360° North 395 455 26,100 900 Climbing Boston Center
06:09PM 41.9783 -73.2778 360° North 409 471 26,700 840 Climbing Boston Center
06:10PM 42.1033 -73.2767 27° Northeast 427 491 27,800 960 Climbing Boston Center
06:11PM 42.2144 -73.1997 53° Northeast 433 498 28,700 840 Climbing Boston Center
06:12PM 42.2967 -73.0519 50° Northeast 443 510 29,500 720 Climbing Boston Center
06:13PM 42.3892 -72.9011 50° Northeast 477 549 30,200 1,020 Climbing Boston Center
06:14PM 42.4769 -72.7608 50° Northeast 484 557 31,600 1,200 Climbing Boston Center
06:15PM 42.5650 -72.6206 49° Northeast 489 563 32,600 900 Climbing Boston Center
06:16PM 42.6525 -72.4825 50° Northeast 481 554 33,400 780 Climbing Boston Center
06:17PM 42.7442 -72.3325 50° Northeast 475 547 34,200 720 Climbing Boston Center
06:18PM 42.8233 -72.2022 50° Northeast 481 554 34,900 660 Climbing Boston Center
06:19PM 42.9103 -72.0603 51° Northeast 481 554 35,600 600 Climbing Boston Center
06:20PM 42.9953 -71.9178 50° Northeast 481 554 36,100 540 Climbing Boston Center
06:21PM 43.0819 -71.7750 50° Northeast 481 554 36,700 420 Climbing Boston Center
06:22PM 43.1667 -71.6344 50° Northeast 481 554 37,000 120 Climbing Boston Center
06:23PM 43.2633 -71.4764 51° Northeast 481 554 37,000  Level Boston Center
06:24PM 43.3453 -71.3353 50° Northeast 481 554 37,000  Level Boston Center
06:25PM 43.4233 -71.2053 52° Northeast 481 554 37,000  Level Boston Center
06:26PM 43.5172 -71.0372 51° Northeast 487 560 37,000  Level Boston Center
06:27PM 43.6028 -70.8919 52° Northeast 487 560 37,000  Level Boston Center
06:28PM 43.6761 -70.7608 52° Northeast 487 560 37,000  Level Boston Center
06:29PM 43.7611 -70.6119 52° Northeast 487 560 37,000  Level Boston Center
06:30PM 43.8483 -70.4594 51° Northeast 493 567 37,000  Level Boston Center
06:31PM 43.9333 -70.3153 52° Northeast 493 567 37,000  Level Boston Center
06:32PM 44.0200 -70.1622 51° Northeast 498 573 37,000  Level Boston Center
06:33PM 44.1064 -70.0114 52° Northeast 498 573 37,100  Climbing Boston Center
06:34PM 44.1928 -69.8572 53° Northeast 498 573 37,000 -60 Descending Boston Center
06:35PM 44.2767 -69.7028 52° Northeast 498 573 37,000  Level Boston Center
06:36PM 44.3625 -69.5506 51° Northeast 498 573 37,000  Level Boston Center
06:37PM 44.4483 -69.4011 53° Northeast 498 573 37,000  Level Boston Center
06:38PM 44.5317 -69.2453 51° Northeast 498 573 37,000  Level Boston Center
06:39PM 44.6189 -69.0917 52° Northeast 498 573 37,000  Level Boston Center
06:40PM 44.7042 -68.9381 53° Northeast 498 573 37,000  Level Boston Center
06:41PM 44.7867 -68.7808 52° Northeast 498 573 37,000  Level Boston Center
06:42PM 44.8714 -68.6292 53° Northeast 498 573 37,000  Level Boston Center
06:43PM 44.9536 -68.4739 53° Northeast 498 573 37,000  Level Boston Center
06:44PM 45.0378 -68.3156 53° Northeast 498 573 37,000  Level Boston Center
06:45PM 45.1217 -68.1594 54° Northeast 498 573 37,000  Level Boston Center
06:46PM 45.2033 -68.0000 58° Northeast 498 573 37,000  Level Boston Center
06:47PM 45.2833 -67.8167 46° Northeast 500 575 37,000  Level Moncton Center
06:48PM 45.3833 -67.6667 39° Northeast 500 575 37,000  Level Moncton Center
06:49PM 45.4833 -67.5500 43° Northeast 500 575 37,000  Level Moncton Center
06:50PM 45.5833 -67.4167 51° Northeast 500 575 37,000  Level Moncton Center
06:51PM 45.6667 -67.2667 39° Northeast 500 575 37,000  Level Moncton Center
06:52PM 45.7833 -67.1333 43° Northeast 500 575 37,000  Level Moncton Center
06:53PM 45.8833 -67.0000 39° Northeast 490 564 37,000  Level Moncton Center
06:54PM 45.9833 -66.8833 46° Northeast 490 564 37,000  Level Moncton Center
06:55PM 46.0833 -66.7333 48° Northeast 490 564 37,000  Level Moncton Center
06:56PM 46.1667 -66.6000 42° Northeast 500 575 37,000  Level Moncton Center
06:57PM 46.2833 -66.4500 43° Northeast 500 575 37,000  Level Moncton Center
06:58PM 46.3833 -66.3167 46° Northeast 500 575 37,000  Level Moncton Center
06:59PM 46.4833 -66.1667 42° Northeast 490 564 37,000  Level Moncton Center
07:00PM 46.5833 -66.0333 44° Northeast 500 575 37,000  Level Moncton Center
07:01PM 46.6667 -65.9167 46° Northeast 500 575 37,000  Level Moncton Center
07:02PM 46.7667 -65.7667 46° Northeast 500 575 37,000  Level Moncton Center
07:03PM 46.8667 -65.6167 38° Northeast 490 564 37,000  Level Moncton Center
07:04PM 46.9833 -65.4833 46° Northeast 490 564 37,000  Level Moncton Center
07:05PM 47.0833 -65.3333 46° Northeast 490 564 37,000  Level Moncton Center
07:06PM 47.1833 -65.1833 44° Northeast 490 564 37,000  Level Moncton Center
07:07PM 47.2667 -65.0667 45° Northeast 490 564 37,000  Level Moncton Center
07:08PM 47.3667 -64.9167 45° Northeast 490 564 37,000  Level Moncton Center
07:09PM 47.4667 -64.7667 43° Northeast 490 564 37,000  Level Moncton Center
07:10PM 47.5500 -64.6500 45° Northeast 490 564 37,000  Level Moncton Center
07:11PM 47.6500 -64.5000 45° Northeast 480 552 37,000  Level Moncton Center
07:12PM 47.7500 -64.3500 45° Northeast 490 564 37,000  Level Moncton Center
07:13PM 47.8500 -64.2000 47° Northeast 480 552 37,000  Level Moncton Center
07:14PM 47.9333 -64.0667 45° Northeast 490 564 37,000  Level Moncton Center
07:15PM 48.0333 -63.9167 45° Northeast 480 552 37,000  Level Moncton Center
07:16PM 48.1333 -63.7667 43° Northeast 480 552 37,000  Level Moncton Center
07:17PM 48.2167 -63.6500 48° Northeast 480 552 37,000  Level Moncton Center
07:18PM 48.3167 -63.4833 45° Northeast 480 552 37,000  Level Moncton Center
07:19PM 48.4167 -63.3333 48° Northeast 480 552 37,000  Level Moncton Center
07:19PM 48.4667 -63.2500 45° Northeast 480 552 37,000  Level Gander Center
07:20PM 48.5667 -63.1000 50° Northeast 490 564 37,000  Level Gander Center
07:21PM 48.6500 -62.9500 45° Northeast 490 564 37,000  Level Gander Center
07:22PM 48.7500 -62.8000 50° Northeast 480 552 37,000  Level Gander Center
07:23PM 48.8333 -62.6500 40° Northeast 490 564 37,000  Level Gander Center
07:24PM 48.9500 -62.5000 50° Northeast 470 541 37,000  Level Gander Center
07:25PM 49.0333 -62.3500 50° Northeast 480 552 37,000  Level Gander Center
07:26PM 49.1167 -62.2000 44° Northeast 480 552 37,000  Level Gander Center
07:27PM 49.2167 -62.0500 50° Northeast 480 552 37,000  Level Gander Center
07:28PM 49.3000 -61.9000 46° Northeast 480 552 37,000 240 Level Gander Center
07:29PM 49.3833 -61.7667 44° Northeast 480 552 37,500 480 Climbing Gander Center
07:30PM 49.4833 -61.6167 49° Northeast 470 541 38,000 360 Climbing Gander Center
07:31PM 49.5667 -61.4667 55° Northeast 470 541 38,300 360 Climbing Gander Center
07:32PM 49.6500 -61.2833 49° Northeast 470 541 38,800 300 Climbing Gander Center
07:33PM 49.7333 -61.1333 52° Northeast 480 552 39,000 60 Climbing Gander Center
07:34PM 49.8167 -60.9667 49° Northeast 470 541 39,000  Level Gander Center
07:35PM 49.9000 -60.8167 46° Northeast 480 552 39,000  Level Gander Center
07:36PM 49.9833 -60.6833 55° Northeast 470 541 39,000  Level Gander Center
07:37PM 50.0667 -60.5000 49° Northeast 470 541 39,000  Level Gander Center
07:38PM 50.1500 -60.3500 52° Northeast 470 541 39,000  Level Gander Center
07:39PM 50.2333 -60.1833 49° Northeast 470 541 39,000  Level Gander Center
07:40PM 50.3167 -60.0333 46° Northeast 470 541 39,000  Level Gander Center
07:41PM 50.4000 -59.9000 57° Northeast 470 541 39,000  Level Gander Center
07:42PM 50.4833 -59.7000 52° Northeast 460 529 39,000  Level Gander Center
07:43PM 50.5500 -59.5667 49° Northeast 460 529 39,000  Level Gander Center
07:44PM 50.6333 -59.4167 52° Northeast 460 529 39,000 -60 Level Gander Center
07:45PM 50.7167 -59.2500 52° Northeast 460 529 38,900 -60 Descending Gander Center
07:46PM 50.8000 -59.0833 52° Northeast 470 541 38,900  Level Gander Center
07:47PM 50.8833 -58.9167 49° Northeast 470 541 39,000  Climbing Gander Center
07:48PM 50.9667 -58.7667 57° Northeast 470 541 39,000 -60 Level Gander Center
07:49PM 51.0333 -58.6000 51° Northeast 470 541 38,900 -60 Descending Gander Center
07:50PM 51.1167 -58.4333 51° Northeast 460 529 38,900  Level Gander Center
07:51PM 51.2000 -58.2667 51° Northeast 470 541 38,900  Level Gander Center
07:52PM 51.2833 -58.1000 51° Northeast 470 541 39,000  Climbing Gander Center
07:53PM 51.3667 -57.9333 57° Northeast 470 541 38,900  Descending Gander Center
07:54PM 51.4333 -57.7667 51° Northeast 470 541 39,000  Climbing Gander Center
07:55PM 51.5167 -57.6000 51° Northeast 470 541 38,900 -60 Descending Gander Center
07:56PM 51.6000 -57.4333 57° Northeast 460 529 38,900  Level Gander Center
07:57PM 51.6667 -57.2667 51° Northeast 470 541 39,000  Climbing Gander Center
07:58PM 51.7500 -57.1000 54° Northeast 470 541 39,000  Level Gander Center
07:59PM 51.8333 -56.9167 57° Northeast 460 529 39,000  Level Gander Center
08:00PM 51.9000 -56.7500 51° Northeast 470 541 39,000  Level Gander Center
08:01PM 51.9833 -56.5833 51° Northeast 470 541 39,000  Level Gander Center
08:02PM 52.0667 -56.4167 59° Northeast 480 552 39,000  Level Gander Center
08:03PM 52.1333 -56.2333 51° Northeast 470 541 39,000  Level Gander Center
08:04PM 52.2167 -56.0667 57° Northeast 470 541 39,000  Level Gander Center
08:05PM 52.2833 -55.9000 53° Northeast 470 541 39,000  Level Gander Center
08:06PM 52.3667 -55.7167 57° Northeast 480 552 39,000  Level Gander Center
08:07PM 52.4333 -55.5500 53° Northeast 480 552 39,000  Level Gander Center
08:08PM 52.5167 -55.3667 57° Northeast 480 552 39,000  Level Gander Center
08:09PM 52.5833 -55.2000 58° Northeast 470 541 39,000  Level Gander Center
08:10PM 52.6667 -54.9833 50° Northeast 480 552 39,000  Level Gander Center
08:11PM 52.7333 -54.8500 53° Northeast 480 552 39,000  Level Gander Center
08:12PM 52.8333 -54.6333 59° Northeast 480 552 39,000  Level Gander Center
08:13PM 52.9000 -54.4500 56° Northeast 480 552 39,000  Level Gander Center
08:14PM 52.9667 -54.2833 53° Northeast 480 552 39,000  Level Gander Center
08:15PM 53.0333 -54.1333 66° East 480 552 39,000  Level Gander Center
08:16PM 53.0833 -53.9500 70° East 480 552 39,000  Level Gander Center
08:17PM 53.1333 -53.7167 67° East 470 541 39,000  Level Gander Center
08:18PM 53.1833 -53.5167 67° East 470 541 39,000  Level Gander Center
08:19PM 53.2333 -53.3167 75° East 470 541 39,000  Level Gander Center
08:20PM 53.2667 -53.1000 67° East 470 541 39,000  Level Gander Center
08:21PM 53.3167 -52.9000 61° Northeast 470 541 39,000  Level Gander Center
08:22PM 53.3833 -52.7000 69° East 470 541 39,000  Level Gander Center
08:23PM 53.4333 -52.4833 67° East 480 552 39,000  Level Gander Center
08:24PM 53.4833 -52.2833 75° East 480 552 39,000  Level Gander Center
08:25PM 53.5167 -52.0667 67° East 480 552 39,000  Level Gander Center
08:26PM 53.5667 -51.8667 69° East 490 564 39,000  Level Gander Center
08:27PM 53.6167 -51.6500 70° East 480 552 39,000  Level Gander Center
08:28PM 53.6667 -51.4167 75° East 490 564 39,000  Level Gander Center
08:29PM 53.7000 -51.2000 67° East 490 564 39,000  Level Gander Center
08:30PM 53.7500 -51.0000 69° East 490 564 39,000  Level Gander Center
08:31PM 53.8000 -50.7833 69° East 490 564 39,000  Level Gander Center
08:32PM 53.8500 -50.5667 73° East 490 564 39,000  Level Gander Center
08:35PM 53.9667 -49.9167 75° East 490 564 39,000  Level Gander Center
08:36PM 54.0000 -49.7000 76° East 490 564 39,000  Level Gander Center
08:44PM 54.2158 -48.1509 77° East  Level FlightAware Approximate
08:45PM 54.2437 -47.9384 77° East  Level FlightAware Approximate
08:46PM 54.2712 -47.7256 69° East  Level FlightAware Approximate
08:47PM 54.3153 -47.5248 76° East  Level FlightAware Approximate
08:48PM 54.3464 -47.3131 76° East  Level FlightAware Approximate
08:49PM 54.3771 -47.1011 76° East  Level FlightAware Approximate
08:50PM 54.4074 -46.8888 76° East  Level FlightAware Approximate
08:51PM 54.4374 -46.6762 76° East  Level FlightAware Approximate
08:52PM 54.4670 -46.4632 77° East  Level FlightAware Approximate
08:53PM 54.4962 -46.2500 77° East  Level FlightAware Approximate
08:54PM 54.5250 -46.0364 77° East  Level FlightAware Approximate
08:55PM 54.5535 -45.8225 77° East  Level FlightAware Approximate
08:56PM 54.5816 -45.6084 77° East  Level FlightAware Approximate
08:57PM 54.6092 -45.3939 78° East  Level FlightAware Approximate
08:58PM 54.6366 -45.1792 78° East  Level FlightAware Approximate
08:59PM 54.6635 -44.9642 78° East  Level FlightAware Approximate
09:00PM 54.6901 -44.7489 78° East  Level FlightAware Approximate
09:01PM 54.7163 -44.5333 78° East  Level FlightAware Approximate
09:02PM 54.7421 -44.3174 78° East  Level FlightAware Approximate
09:03PM 54.7675 -44.1013 79° East  Level FlightAware Approximate
09:04PM 54.7925 -43.8849 79° East  Level FlightAware Approximate
09:05PM 54.8171 -43.6682 79° East  Level FlightAware Approximate
09:06PM 54.8414 -43.4512 79° East  Level FlightAware Approximate
09:07PM 54.8653 -43.2341 79° East  Level FlightAware Approximate
09:08PM 54.8887 -43.0166 76° East  Level FlightAware Approximate
09:09PM 54.9191 -42.8016 76° East  Level FlightAware Approximate
09:10PM 54.9491 -42.5863 76° East  Level FlightAware Approximate
09:11PM 54.9787 -42.3706 77° East  Level FlightAware Approximate
09:12PM 55.0079 -42.1547 77° East  Level FlightAware Approximate
09:13PM 55.0368 -41.9384 77° East  Level FlightAware Approximate
09:14PM 55.0652 -41.7218 77° East  Level FlightAware Approximate
09:15PM 55.0933 -41.5049 77° East  Level FlightAware Approximate
09:16PM 55.1210 -41.2877 78° East  Level FlightAware Approximate
09:17PM 55.1483 -41.0703 78° East  Level FlightAware Approximate
09:18PM 55.1752 -40.8525 78° East  Level FlightAware Approximate
09:19PM 55.2017 -40.6344 78° East  Level FlightAware Approximate
09:20PM 55.2279 -40.4160 78° East  Level FlightAware Approximate
09:21PM 55.2536 -40.1974 78° East  Level FlightAware Approximate
09:22PM 55.2790 -39.9784 79° East  Level FlightAware Approximate
09:23PM 55.3039 -39.7592 79° East  Level FlightAware Approximate
09:24PM 55.3285 -39.5397 79° East  Level FlightAware Approximate
09:25PM 55.3527 -39.3200 79° East  Level FlightAware Approximate
09:26PM 55.3764 -39.0999 79° East  Level FlightAware Approximate
09:27PM 55.3998 -38.8797 80° East  Level FlightAware Approximate
09:28PM 55.4228 -38.6591 80° East  Level FlightAware Approximate
09:29PM 55.4454 -38.4383 80° East  Level FlightAware Approximate
09:30PM 55.4676 -38.2173 80° East  Level FlightAware Approximate
09:31PM 55.4894 -37.9960 80° East  Level FlightAware Approximate
09:32PM 55.5108 -37.7744 80° East  Level FlightAware Approximate
09:33PM 55.5318 -37.5527 81° East  Level FlightAware Approximate
09:34PM 55.5524 -37.3306 81° East  Level FlightAware Approximate
09:35PM 55.5726 -37.1084 81° East  Level FlightAware Approximate
09:36PM 55.5924 -36.8859 81° East  Level FlightAware Approximate
09:37PM 55.6118 -36.6632 81° East  Level FlightAware Approximate
09:38PM 55.6308 -36.4403 82° East  Level FlightAware Approximate
09:39PM 55.6493 -36.2172 82° East  Level FlightAware Approximate
09:40PM 55.6675 -35.9939 75° East  Level FlightAware Approximate
09:41PM 55.7006 -35.7759 75° East  Level FlightAware Approximate
09:42PM 55.7333 -35.5575 75° East  Level FlightAware Approximate
09:43PM 55.7657 -35.3387 75° East  Level FlightAware Approximate
09:44PM 55.7976 -35.1196 76° East  Level FlightAware Approximate
09:45PM 55.8291 -34.9001 76° East  Level FlightAware Approximate
09:46PM 55.8603 -34.6803 76° East  Level FlightAware Approximate
09:47PM 55.8910 -34.4601 76° East  Level FlightAware Approximate
09:48PM 55.9214 -34.2396 76° East  Level FlightAware Approximate
09:49PM 55.9514 -34.0187 76° East  Level FlightAware Approximate
09:50PM 55.9810 -33.7975 77° East  Level FlightAware Approximate
09:51PM 56.0101 -33.5760 77° East  Level FlightAware Approximate
09:52PM 56.0389 -33.3541 77° East  Level FlightAware Approximate
09:53PM 56.0673 -33.1319 77° East  Level FlightAware Approximate
09:54PM 56.0953 -32.9093 77° East  Level FlightAware Approximate
09:55PM 56.1229 -32.6865 78° East  Level FlightAware Approximate
09:56PM 56.1501 -32.4633 78° East  Level FlightAware Approximate
09:57PM 56.1768 -32.2398 78° East  Level FlightAware Approximate
09:58PM 56.2032 -32.0160 78° East  Level FlightAware Approximate
09:59PM 56.2292 -31.7919 78° East  Level FlightAware Approximate
10:00PM 56.2547 -31.5675 79° East  Level FlightAware Approximate
10:01PM 56.2799 -31.3428 79° East  Level FlightAware Approximate
10:02PM 56.3046 -31.1178 79° East  Level FlightAware Approximate
10:03PM 56.3290 -30.8925 79° East  Level FlightAware Approximate
10:04PM 56.3529 -30.6670 79° East  Level FlightAware Approximate
10:05PM 56.3764 -30.4411 81° East  Level FlightAware Approximate
10:06PM 56.3965 -30.2141 81° East  Level FlightAware Approximate
10:07PM 56.4161 -29.9868 81° East  Level FlightAware Approximate
10:08PM 56.4354 -29.7592 81° East  Level FlightAware Approximate
10:09PM 56.4542 -29.5315 82° East  Level FlightAware Approximate
10:10PM 56.4726 -29.3035 82° East  Level FlightAware Approximate
10:11PM 56.4906 -29.0753 82° East  Level FlightAware Approximate
10:12PM 56.5081 -28.8469 82° East  Level FlightAware Approximate
10:13PM 56.5253 -28.6182 82° East  Level FlightAware Approximate
10:14PM 56.5420 -28.3894 83° East  Level FlightAware Approximate
10:15PM 56.5583 -28.1604 83° East  Level FlightAware Approximate
10:16PM 56.5742 -27.9311 83° East  Level FlightAware Approximate
10:17PM 56.5896 -27.7017 83° East  Level FlightAware Approximate
10:18PM 56.6047 -27.4721 83° East  Level FlightAware Approximate
10:19PM 56.6193 -27.2423 84° East  Level FlightAware Approximate
10:20PM 56.6335 -27.0124 84° East  Level FlightAware Approximate
10:21PM 56.6473 -26.7823 84° East  Level FlightAware Approximate
10:22PM 56.6606 -26.5520 84° East  Level FlightAware Approximate
10:23PM 56.6735 -26.3215 84° East  Level FlightAware Approximate
10:24PM 56.6860 -26.0909 84° East  Level FlightAware Approximate
10:25PM 56.6981 -25.8601 85° East  Level FlightAware Approximate
10:26PM 56.7097 -25.6292 85° East  Level FlightAware Approximate
10:27PM 56.7209 -25.3982 85° East  Level FlightAware Approximate
10:28PM 56.7317 -25.1670 85° East  Level FlightAware Approximate
10:29PM 56.7420 -24.9357 85° East  Level FlightAware Approximate
10:30PM 56.7520 -24.7043 86° East  Level FlightAware Approximate
10:31PM 56.7615 -24.4727 86° East  Level FlightAware Approximate
10:32PM 56.7705 -24.2411 86° East  Level FlightAware Approximate
10:33PM 56.7792 -24.0093 86° East  Level FlightAware Approximate
10:34PM 56.7874 -23.7774 86° East  Level FlightAware Approximate
10:35PM 56.7952 -23.5454 87° East  Level FlightAware Approximate
10:36PM 56.8025 -23.3134 87° East  Level FlightAware Approximate
10:37PM 56.8094 -23.0812 87° East  Level FlightAware Approximate
10:38PM 56.8159 -22.8489 87° East  Level FlightAware Approximate
10:39PM 56.8220 -22.6166 87° East  Level FlightAware Approximate
10:40PM 56.8276 -22.3842 88° East  Level FlightAware Approximate
10:41PM 56.8328 -22.1518 88° East  Level FlightAware Approximate
10:42PM 56.8375 -21.9192 88° East  Level FlightAware Approximate
10:43PM 56.8419 -21.6867 88° East  Level FlightAware Approximate
10:44PM 56.8457 -21.4540 88° East  Level FlightAware Approximate
10:45PM 56.8492 -21.2213 89° East  Level FlightAware Approximate
10:46PM 56.8522 -20.9886 89° East  Level FlightAware Approximate
10:47PM 56.8548 -20.7559 89° East  Level FlightAware Approximate
10:48PM 56.8570 -20.5231 89° East  Level FlightAware Approximate
10:49PM 56.8587 -20.2903 89° East  Level FlightAware Approximate
10:50PM 56.8600 -20.0575 90° East  Level FlightAware Approximate
10:51PM 56.8598 -19.8246 90° East  Level FlightAware Approximate
10:52PM 56.8592 -19.5918 90° East  Level FlightAware Approximate
10:53PM 56.8582 -19.3589 91° East  Level FlightAware Approximate
10:54PM 56.8567 -19.1261 91° East  Level FlightAware Approximate
10:55PM 56.8547 -18.8934 91° East  Level FlightAware Approximate
10:56PM 56.8524 -18.6606 91° East  Level FlightAware Approximate
10:57PM 56.8496 -18.4279 91° East  Level FlightAware Approximate
10:58PM 56.8464 -18.1952 92° East  Level FlightAware Approximate
10:59PM 56.8427 -17.9625 92° East  Level FlightAware Approximate
11:00PM 56.8386 -17.7299 92° East  Level FlightAware Approximate
11:01PM 56.8341 -17.4974 92° East  Level FlightAware Approximate
11:02PM 56.8291 -17.2649 92° East  Level FlightAware Approximate
11:03PM 56.8237 -17.0324 93° East  Level FlightAware Approximate
11:04PM 56.8179 -16.8001 93° East  Level FlightAware Approximate
11:05PM 56.8117 -16.5678 93° East  Level FlightAware Approximate
11:06PM 56.8050 -16.3356 93° East  Level FlightAware Approximate
11:07PM 56.7979 -16.1035 93° East  Level FlightAware Approximate
11:08PM 56.7903 -15.8715 93° East  Level FlightAware Approximate
11:09PM 56.7823 -15.6395 94° East  Level FlightAware Approximate
11:10PM 56.7739 -15.4077 94° East  Level FlightAware Approximate
11:11PM 56.7651 -15.1760 94° East  Level FlightAware Approximate
11:12PM 56.7559 -14.9444 94° East  Level FlightAware Approximate
11:13PM 56.7462 -14.7129 94° East  Level FlightAware Approximate
11:14PM 56.7360 -14.4815 95° East  Level FlightAware Approximate
11:15PM 56.7255 -14.2503 95° East  Level FlightAware Approximate
11:16PM 56.7145 -14.0192 95° East  Level FlightAware Approximate
11:17PM 56.7031 -13.7882 95° East  Level FlightAware Approximate
11:18PM 56.6913 -13.5574 95° East  Level FlightAware Approximate
11:19PM 56.6790 -13.3267 96° East  Level FlightAware Approximate
11:20PM 56.6663 -13.0962 96° East  Level FlightAware Approximate
11:21PM 56.6532 -12.8658 96° East  Level FlightAware Approximate
11:22PM 56.6397 -12.6356 96° East  Level FlightAware Approximate
11:23PM 56.6257 -12.4055 96° East  Level FlightAware Approximate
11:24PM 56.6113 -12.1757 97° East  Level FlightAware Approximate
11:25PM 56.5965 -11.9460 97° East  Level FlightAware Approximate
11:26PM 56.5813 -11.7165 97° East  Level FlightAware Approximate
11:27PM 56.5657 -11.4872 97° East  Level FlightAware Approximate
11:28PM 56.5496 -11.2580 97° East  Level FlightAware Approximate
11:29PM 56.5331 -11.0291 98° East  Level FlightAware Approximate
11:30PM 56.5162 -10.8004 98° East  Level FlightAware Approximate
11:31PM 56.4988 -10.5718 98° East  Level FlightAware Approximate
11:32PM 56.4811 -10.3435 98° East  Level FlightAware Approximate
11:33PM 56.4629 -10.1154 76° East  Level FlightAware Approximate
11:34PM 56.4916 -9.9042 99° East  Level FlightAware Approximate
11:35PM 56.4722 -9.6764 99° East  Level FlightAware Approximate
11:36PM 56.4524 -9.4488 99° East  Level FlightAware Approximate
11:37PM 56.4322 -9.2214 99° East  Level FlightAware Approximate
11:38PM 56.4115 -8.9943 102° East  Level FlightAware Approximate
11:39PM 56.3851 -8.7695 99° East  Level FlightAware Approximate
11:40PM 56.3656 -8.5424 99° East  Level FlightAware Approximate
11:41PM 56.3456 -8.3155 99° East  Level FlightAware Approximate
11:42PM 56.3252 -8.0888 99° East  Level FlightAware Approximate
11:43PM 56.3044 -7.8624 99° East  Level FlightAware Approximate
11:44PM 56.2832 -7.6362 100° East  Level FlightAware Approximate
11:45PM 56.2616 -7.4103 112° Southeast  Level FlightAware Approximate
11:46PM 56.2145 -7.1978 99° East  Level FlightAware Approximate
11:47PM 56.1938 -6.9720 99° East  Level FlightAware Approximate
11:48PM 56.1727 -6.7465 100° East  Level FlightAware Approximate
11:49PM 56.1513 -6.5211 100° East  Level FlightAware Approximate
11:50PM 56.1294 -6.2961 100° East  Level FlightAware Approximate
11:51PM 56.1071 -6.0713 100° East  Level FlightAware Approximate
11:52PM 56.0844 -5.8467 100° East  Level FlightAware Approximate
11:53PM 56.0613 -5.6224 101° East  Level FlightAware Approximate
11:54PM 56.0378 -5.3984 126° Southeast  Level FlightAware Approximate
11:55PM 55.9642 -5.2147 100° East  Level FlightAware Approximate
11:56PM 55.9417 -4.9909 105° East  Level FlightAware Approximate
11:57PM 55.9087 -4.7775 100° East  Level FlightAware Approximate
11:58PM 55.8857 -4.5542 103° East  Level FlightAware Approximate
11:59PM 55.8559 -4.3338 101° East  Level FlightAware Approximate
12:00AM 55.8323 -4.1110 101° East  Level FlightAware Approximate
12:01AM 55.8082 -3.8886 101° East  Level FlightAware Approximate
12:02AM 55.7837 -3.6663 101° East  Level FlightAware Approximate
12:03AM 55.7589 -3.4444 101° East  Level FlightAware Approximate
12:04AM 55.7336 -3.2227 102° East  Level FlightAware Approximate
12:05AM 55.7079 -3.0014 103° East  Level FlightAware Approximate
12:06AM 55.6791 -2.7819 102° East  Level FlightAware Approximate
12:07AM 55.6527 -2.5612 102° East  Level FlightAware Approximate
12:08AM 55.6260 -2.3407 102° East  Level FlightAware Approximate
12:09AM 55.5988 -2.1205 102° East  Level FlightAware Approximate
12:10AM 55.5712 -1.9006 103° East  Level FlightAware Approximate
12:11AM 55.5433 -1.6810 103° East  Level FlightAware Approximate
12:12AM 55.5149 -1.4618 103° East  Level FlightAware Approximate
12:13AM 55.4862 -1.2429 99° East  Level FlightAware Approximate
12:14AM 55.4650 -1.0214 103° East  Level FlightAware Approximate
12:15AM 55.4357 -0.8030 103° East  Level FlightAware Approximate
12:16AM 55.4060 -0.5849 104° East  Level FlightAware Approximate
12:17AM 55.3758 -0.3672 104° East  Level FlightAware Approximate
12:18AM 55.3453 -0.1498 104° East  Level FlightAware Approximate
12:19AM 55.3144 0.0673 104° East  Level FlightAware Approximate
12:20AM 55.2831 0.2841 104° East  Level FlightAware Approximate
12:21AM 55.2515 0.5005 104° East  Level FlightAware Approximate
12:22AM 55.2194 0.7165 105° East  Level FlightAware Approximate
12:23AM 55.1870 0.9322 105° East  Level FlightAware Approximate
12:24AM 55.1542 1.1475 105° East  Level FlightAware Approximate
12:25AM 55.1210 1.3625 107° East  Level FlightAware Approximate
12:26AM 55.0828 1.5746 105° East  Level FlightAware Approximate
12:27AM 55.0489 1.7889 106° East  Level FlightAware Approximate
12:28AM 55.0146 2.0028 106° East  Level FlightAware Approximate
12:29AM 54.9800 2.2163 106° East  Level FlightAware Approximate
12:30AM 54.9449 2.4295 106° East  Level FlightAware Approximate
12:31AM 54.9095 2.6423 106° East  Level FlightAware Approximate
12:32AM 54.8738 2.8547 106° East  Level FlightAware Approximate
12:33AM 54.8377 3.0667 107° East  Level FlightAware Approximate
12:34AM 54.8012 3.2784 107° East  Level FlightAware Approximate
12:35AM 54.7643 3.4897 107° East  Level FlightAware Approximate
12:36AM 54.7271 3.7006 107° East  Level FlightAware Approximate
12:37AM 54.6895 3.9111 107° East  Level FlightAware Approximate
12:38AM 54.6515 4.1212 107° East  Level FlightAware Approximate
12:39AM 54.6132 4.3309 111° Southeast  Level FlightAware Approximate
12:40AM 54.5664 4.5352 108° East  Level FlightAware Approximate
12:41AM 54.5278 4.7443 108° East  Level FlightAware Approximate
12:42AM 54.4888 4.9530 108° East  Level FlightAware Approximate
12:43AM 54.4495 5.1613 108° East  Level FlightAware Approximate
12:44AM 54.4099 5.3693 103° East  Level FlightAware Approximate
12:45AM 54.3807 5.5812 109° East  Level FlightAware Approximate
12:46AM 54.3397 5.7880 109° East  Level FlightAware Approximate
12:47AM 54.2983 5.9944 109° East  Level FlightAware Approximate
12:48AM 54.2566 6.2004 109° East  Level FlightAware Approximate
12:49AM 54.2146 6.4060 109° East  Level FlightAware Approximate
12:50AM 54.1721 6.6111 110° East  Level FlightAware Approximate
12:51AM 54.1292 6.8157 110° East  Level FlightAware Approximate
12:52AM 54.0862 7.0201 110° East  Level FlightAware Approximate
12:53AM 54.0428 7.2240 110° East  Level FlightAware Approximate
12:54AM 53.9991 7.4275 110° East  Level FlightAware Approximate
12:55AM 53.9550 7.6305 110° East  Level FlightAware Approximate
12:56AM 53.9106 7.8331 111° Southeast  Level FlightAware Approximate
12:57AM 53.8658 8.0353 111° Southeast  Level FlightAware Approximate
12:58AM 53.8208 8.2371 111° Southeast  Level FlightAware Approximate
12:59AM 53.7753 8.4384 111° Southeast  Level FlightAware Approximate
01:00AM 53.7296 8.6393 111° Southeast  Level FlightAware Approximate
01:01AM 53.6835 8.8398 111° Southeast  Level FlightAware Approximate
01:02AM 53.6370 9.0398 111° Southeast  Level FlightAware Approximate
01:03AM 53.5903 9.2394 112° Southeast  Level FlightAware Approximate
01:04AM 53.5414 9.4373 111° Southeast  Level FlightAware Approximate
01:05AM 53.4957 9.6371 112° Southeast  Level FlightAware Approximate
01:06AM 53.4480 9.8353 109° East  Level FlightAware Approximate
01:07AM 53.4063 10.0364 112° Southeast  Level FlightAware Approximate
01:08AM 53.3576 10.2335 114° Southeast  Level FlightAware Approximate
01:09AM 53.3057 10.4275 113° Southeast  Level FlightAware Approximate
01:10AM 53.2562 10.6200 113° Southeast  Level FlightAware Approximate
01:11AM 53.2067 10.8160 112° Southeast  Level FlightAware Approximate
01:12AM 53.1600 11.0126 113° Southeast  Level FlightAware Approximate
01:13AM 53.1096 11.2075 116° Southeast  Level FlightAware Approximate
01:14AM 53.0547 11.3985 113° Southeast  Level FlightAware Approximate
01:15AM 53.0042 11.5928 113° Southeast  Level FlightAware Approximate
01:16AM 52.9534 11.7866 114° Southeast  Level FlightAware Approximate
01:17AM 52.9022 11.9800 110° East  Level FlightAware Approximate
01:18AM 52.8583 12.1776 114° Southeast  Level FlightAware Approximate
01:19AM 52.8054 12.3692 115° Southeast  Level FlightAware Approximate
01:20AM 52.7518 12.5600 118° Southeast  Level FlightAware Approximate
01:21AM 52.6916 12.7444 112° Southeast  Level FlightAware Approximate
01:22AM 52.6436 12.9384 115° Southeast  Level FlightAware Approximate
01:23AM 52.5901 13.1262 113° Southeast  Level FlightAware Approximate
01:24AM 52.5500 13.2833 15° North  Level FlightAware Approximate
01:25AM 52.6727 13.3390 195° South  Level Estimated
01:26AM 52.5500 13.2833 15° North  Level Estimated
01:27AM 52.6727 13.3390 195° South  Level Estimated
01:28AM 52.5500 13.2833 15° North  Level Estimated
01:29AM 52.6727 13.3390 195° South  Level Estimated
01:30AM 52.5500 13.2833 360° North  Level Estimated
01:31AM 52.5500 13.2833 15° North  Level FlightAware Approximate
01:32AM 52.6727 13.3390 195° South  Level Estimated
01:33AM 52.5500 13.2833 15° North  Level FlightAware Approximate
01:34AM 52.6727 13.3390 195° South  Level Estimated
01:35AM 52.5500 13.2833 15° North  Level FlightAware Approximate
01:36AM 52.6727 13.3390 195° South  Level Estimated
01:37AM 52.5500 13.2833 15° North  Level FlightAware Approximate
01:38AM 52.6727 13.3390 195° South  Level Estimated
01:39AM 52.5500 13.2833 15° North  Level FlightAware Approximate
01:40AM 52.6727 13.3390 195° South  Level Estimated
01:41AM 52.5500 13.2833 15° North  Level FlightAware Approximate
01:42AM 52.6727 13.3390 195° South  Level Estimated
01:43AM 52.5500 13.2833 15° North  Level FlightAware Approximate
01:44AM 52.6727 13.3390 195° South  Level Estimated
01:45AM 52.5500 13.2833 15° North  Level FlightAware Approximate
01:46AM 52.6727 13.3390 195° South  Level Estimated
01:47AM 52.5500 13.2833 195° South  Level FlightAware Approximate